Time;durP1;ratioP1;P1;durP2;ratioP2;P2;SDS_P1;SDS_P2;PMS_P1;PMS_P2;Temp;Humidity;BMP_temperature;BMP_pressure;BME280_temperature;BME280_humidity;BME280_pressure;Samples;Min_cycle;Max_cycle;Signal;HPM_P1;HPM_P2
2021/07/14 00:00:08;;;;;;;;;;;17.70;99.90;;;-145.59;100.00;63944.34;5032786;28;19925;-73
2021/07/14 00:02:34;;;;;;;;;;;17.70;99.90;;;-145.59;100.00;63944.34;5034101;28;19940;-75
2021/07/14 00:05:01;;;;;;;;;;;17.70;99.90;;;-145.59;100.00;63944.34;5018699;28;20372;-75
2021/07/14 00:07:26;;;;;;;;;;;17.80;99.90;;;-145.59;100.00;63944.34;5019880;28;19925;-75
2021/07/14 00:09:52;;;;;;;;;;;17.70;99.90;;;-145.59;100.00;63944.34;5019522;28;20401;-73
2021/07/14 00:12:19;;;;;;;;;;;17.80;99.90;;;-145.59;100.00;63944.34;5053762;28;19999;-74
2021/07/14 00:15:05;;;;;;;;;;;17.80;99.90;;;-145.59;100.00;63944.34;5053556;28;19921;-75
2021/07/14 00:17:49;;;;;;;;;;;17.80;99.90;;;-145.59;100.00;63944.34;5022108;28;19974;-68
2021/07/14 00:22:59;;;;;;;;;;;17.80;99.90;;;-145.59;100.00;63944.34;5053488;28;19970;-69
2021/07/14 00:25:25;;;;;;;;;;;17.80;99.90;;;-145.59;100.00;63944.34;5019112;28;20326;-69
2021/07/14 00:27:52;;;;;;;;;;;17.90;99.90;;;-145.59;100.00;63944.34;5019279;28;20416;-69
2021/07/14 00:30:26;;;;;;;;;;;17.90;99.90;;;-145.59;100.00;63944.34;5035863;28;19952;-74
2021/07/14 00:32:52;;;;;;;;;;;17.90;99.90;;;-145.59;100.00;63944.34;5020242;28;20402;-69
2021/07/14 00:35:17;;;;;;;;;;;17.90;99.90;;;-145.59;100.00;63944.34;5053416;28;19921;-70
2021/07/14 00:37:43;;;;;;;;;;;17.80;99.90;;;-145.59;100.00;63944.34;5019157;28;20035;-70
2021/07/14 00:40:11;;;;;;;;;;;17.80;99.90;;;-145.59;100.00;63944.34;5053446;28;19927;-71
2021/07/14 00:42:37;;;;;;;;;;;17.80;99.90;;;-145.59;100.00;63944.34;5019258;28;19971;-68
2021/07/14 00:45:06;;;;;;;;;;;17.70;99.90;;;-145.59;100.00;63944.34;5035842;28;19971;-72
2021/07/14 00:47:33;;;;;;;;;;;17.70;99.90;;;-145.59;100.00;63944.34;5036431;28;19921;-71
2021/07/14 00:50:00;;;;;;;;;;;17.70;99.90;;;-145.59;100.00;63944.34;5053662;28;20363;-70
2021/07/14 00:52:26;;;;;;;;;;;17.70;99.90;;;-145.59;100.00;63944.34;5053710;28;19921;-69
2021/07/14 00:54:53;;;;;;;;;;;17.70;99.90;;;-145.59;100.00;63944.34;5035864;28;20256;-70
2021/07/14 00:57:21;;;;;;;;;;;17.60;99.90;;;-145.59;100.00;63944.34;5036674;28;20375;-68
2021/07/14 00:59:47;;;;;;;;;;;17.70;99.90;;;-145.59;100.00;63944.34;5040924;28;19948;-70
2021/07/14 01:02:12;;;;;;;;;;;17.70;99.90;;;-145.59;100.00;63944.34;5057545;28;20363;-70
2021/07/14 01:04:56;;;;;;;;;;;17.60;99.90;;;-145.59;100.00;63944.34;5039761;28;20357;-69
2021/07/14 01:07:31;;;;;;;;;;;17.70;99.90;;;-145.59;100.00;63944.34;5041148;28;19928;-68
2021/07/14 01:10:33;;;;;;;;;;;17.70;99.90;;;-145.59;100.00;63944.34;5023223;28;19923;-69
2021/07/14 01:13:07;;;;;;;;;;;17.70;99.90;;;-145.59;100.00;63944.34;5029935;28;20413;-69
2021/07/14 01:15:46;;;;;;;;;;;17.70;99.90;;;-145.59;100.00;63944.34;5023782;28;20371;-68
2021/07/14 01:18:30;;;;;;;;;;;17.70;99.90;;;-145.59;100.00;63944.34;5040543;28;20053;-68
2021/07/14 01:21:16;;;;;;;;;;;17.80;99.90;;;-145.59;100.00;63944.34;5056835;28;19971;-73
2021/07/14 01:23:55;;;;;;;;;;;17.80;99.90;;;-145.59;100.00;63944.34;5040322;28;19917;-74
2021/07/14 01:26:52;;;;;;;;;;;17.70;99.90;;;-145.59;100.00;63944.34;5040093;28;19936;-75
2021/07/14 01:29:18;;;;;;;;;;;17.60;99.90;;;-145.59;100.00;63944.34;5024890;28;19967;-75
2021/07/14 01:31:47;;;;;;;;;;;17.60;99.90;;;-145.59;100.00;63944.34;5006245;28;19925;-71
2021/07/14 01:34:13;;;;;;;;;;;17.60;99.90;;;-145.59;100.00;63944.34;5022612;28;19916;-72
2021/07/14 01:36:42;;;;;;;;;;;17.60;99.90;;;-145.59;100.00;63944.34;5022277;28;19920;-70
2021/07/14 01:39:08;;;;;;;;;;;17.50;99.90;;;-145.59;100.00;63944.34;5039730;28;19986;-70
2021/07/14 01:41:37;;;;;;;;;;;17.60;99.90;;;-145.59;100.00;63944.34;5038933;28;19924;-70
2021/07/14 01:44:04;;;;;;;;;;;17.50;99.90;;;-145.59;100.00;63944.34;5022468;28;19975;-72
2021/07/14 01:46:31;;;;;;;;;;;17.50;99.90;;;-145.59;100.00;63944.34;5022291;28;19916;-71
2021/07/14 01:49:03;;;;;;;;;;;17.50;99.90;;;-145.59;100.00;63944.34;5022221;28;19931;-70
2021/07/14 01:51:29;;;;;;;;;;;17.50;99.90;;;-145.59;100.00;63944.34;5039781;28;19921;-72
2021/07/14 01:53:58;;;;;;;;;;;17.60;99.90;;;-145.59;100.00;63944.34;5022304;28;20011;-69
2021/07/14 01:56:24;;;;;;;;;;;17.60;99.90;;;-145.59;100.00;63944.34;5038719;28;20367;-75
2021/07/14 01:58:52;;;;;;;;;;;17.70;99.90;;;-145.59;100.00;63944.34;5038588;28;19921;-72
2021/07/14 02:01:20;;;;;;;;;;;17.70;99.90;;;-145.59;100.00;63944.34;5022045;28;19917;-71
2021/07/14 02:04:48;;;;;;;;;;;17.80;99.90;;;-145.59;100.00;63944.34;5038995;28;20067;-73
2021/07/14 02:06:48;;;;;;;;;;;17.80;99.90;;;-145.59;100.00;63944.34;5033571;28;19920;-74
2021/07/14 02:09:13;;;;;;;;;;;17.80;99.90;;;-145.59;100.00;63944.34;5020784;28;19921;-70
2021/07/14 02:11:41;;;;;;;;;;;17.70;99.90;;;-145.59;100.00;63944.34;5055984;28;19925;-73
2021/07/14 02:14:07;;;;;;;;;;;17.70;99.90;;;-145.59;100.00;63944.34;5021886;28;19917;-71
2021/07/14 02:16:34;;;;;;;;;;;17.70;99.90;;;-145.59;100.00;63944.34;5005332;28;20429;-71
2021/07/14 02:19:01;;;;;;;;;;;17.80;99.90;;;-145.59;100.00;63944.34;5038406;28;19975;-72
2021/07/14 02:21:27;;;;;;;;;;;17.80;99.90;;;-145.59;100.00;63944.34;5021963;28;19913;-71
2021/07/14 02:23:54;;;;;;;;;;;17.80;99.90;;;-145.59;100.00;63944.34;5038590;28;19978;-71
2021/07/14 02:26:19;;;;;;;;;;;17.90;99.90;;;-145.59;100.00;63944.34;5021724;28;19920;-69
2021/07/14 02:28:45;;;;;;;;;;;17.90;99.90;;;-145.59;100.00;63944.34;5021310;28;20290;-72
2021/07/14 02:31:11;;;;;;;;;;;17.90;99.90;;;-145.59;100.00;63944.34;5038101;28;19927;-68
2021/07/14 02:33:37;;;;;;;;;;;17.90;99.90;;;-145.59;100.00;63944.34;5038217;28;19916;-67
2021/07/14 02:36:06;;;;;;;;;;;17.90;99.90;;;-145.59;100.00;63944.34;5021223;28;19928;-70
2021/07/14 02:38:40;;;;;;;;;;;17.90;99.90;;;-145.59;100.00;63944.34;5021657;28;19921;-69
2021/07/14 02:41:17;;;;;;;;;;;17.80;99.90;;;-145.59;100.00;63944.34;5021529;28;20421;-70
2021/07/14 02:43:47;;;;;;;;;;;17.80;99.90;;;-145.59;100.00;63944.34;5021648;28;19960;-70
2021/07/14 02:46:18;;;;;;;;;;;17.70;99.90;;;-145.59;100.00;63944.34;5021367;28;20367;-69
2021/07/14 02:48:45;;;;;;;;;;;17.70;99.90;;;-145.59;100.00;63944.34;5038180;28;19917;-73
2021/07/14 02:51:12;;;;;;;;;;;17.70;99.90;;;-145.59;100.00;63944.34;5037568;28;19995;-71
2021/07/14 02:53:45;;;;;;;;;;;17.60;99.90;;;-145.59;100.00;63944.34;5037616;28;20401;-69
2021/07/14 02:56:20;;;;;;;;;;;17.60;99.90;;;-145.59;100.00;63944.34;5021427;28;19963;-69
2021/07/14 02:58:57;;;;;;;;;;;17.60;99.90;;;-145.59;100.00;63944.34;5022076;28;19920;-67
2021/07/14 03:01:24;;;;;;;;;;;17.60;99.90;;;-145.59;100.00;63944.34;5021474;28;19916;-69
2021/07/14 03:03:50;;;;;;;;;;;17.60;99.90;;;-145.59;100.00;63944.34;5021074;28;20432;-69
2021/07/14 03:06:17;;;;;;;;;;;17.60;99.90;;;-145.59;100.00;63944.34;5004466;28;19925;-67
2021/07/14 03:08:48;;;;;;;;;;;17.50;99.90;;;-145.59;100.00;63944.34;5020615;28;20501;-70
2021/07/14 03:11:16;;;;;;;;;;;17.50;99.90;;;-145.59;100.00;63944.34;5020788;28;19921;-73
2021/07/14 03:13:44;;;;;;;;;;;17.40;99.90;;;-145.59;100.00;63944.34;5020698;28;19928;-73
2021/07/14 03:16:10;;;;;;;;;;;17.40;99.90;;;-145.59;100.00;63944.34;5037263;28;19932;-72
2021/07/14 03:18:37;;;;;;;;;;;17.50;99.90;;;-145.59;100.00;63944.34;5036929;28;19971;-72
2021/07/14 03:21:03;;;;;;;;;;;17.50;99.90;;;-145.59;100.00;63944.34;5020487;28;19940;-71
2021/07/14 03:23:30;;;;;;;;;;;17.40;99.90;;;-145.59;100.00;63944.34;5020698;28;19963;-73
2021/07/14 03:25:58;;;;;;;;;;;17.40;99.90;;;-145.59;100.00;63944.34;5020459;28;20012;-75
2021/07/14 03:28:25;;;;;;;;;;;17.30;99.90;;;-145.59;100.00;63944.34;5036955;28;19955;-71
2021/07/14 03:30:52;;;;;;;;;;;17.30;99.90;;;-145.59;100.00;63944.34;5020882;28;20008;-70
2021/07/14 03:33:18;;;;;;;;;;;17.40;99.90;;;-145.59;100.00;63944.34;5036958;28;19927;-72
2021/07/14 03:35:44;;;;;;;;;;;17.30;99.90;;;-145.59;100.00;63944.34;5036697;28;19920;-70
2021/07/14 03:38:11;;;;;;;;;;;17.30;99.90;;;-145.59;100.00;63944.34;5036748;28;19928;-71
2021/07/14 03:40:40;;;;;;;;;;;17.30;99.90;;;-145.59;100.00;63944.34;5054604;28;19917;-70
2021/07/14 03:43:07;;;;;;;;;;;17.40;99.90;;;-145.59;100.00;63944.34;5054366;28;19971;-70
2021/07/14 03:45:33;;;;;;;;;;;17.40;99.90;;;-145.59;100.00;63944.34;5003756;28;19925;-69
2021/07/14 03:48:00;;;;;;;;;;;17.40;99.90;;;-145.59;100.00;63944.34;5036335;28;19924;-69
2021/07/14 03:50:26;;;;;;;;;;;17.50;99.90;;;-145.59;100.00;63944.34;5021319;28;19963;-71
2021/07/14 03:52:52;;;;;;;;;;;17.40;99.90;;;-145.59;100.00;63944.34;5037017;28;20465;-69
2021/07/14 03:55:19;;;;;;;;;;;17.40;99.90;;;-145.59;100.00;63944.34;5036344;28;19921;-69
2021/07/14 03:57:45;;;;;;;;;;;17.40;99.90;;;-145.59;100.00;63944.34;5020238;28;19928;-71
2021/07/14 04:00:12;;;;;;;;;;;17.40;99.90;;;-145.59;100.00;63944.34;5019871;28;19917;-68
2021/07/14 04:02:41;;;;;;;;;;;17.30;99.90;;;-145.59;100.00;63944.34;5036350;28;19935;-70
2021/07/14 04:05:07;;;;;;;;;;;17.30;99.90;;;-145.59;100.00;63944.34;5036972;28;20015;-69
2021/07/14 04:07:34;;;;;;;;;;;17.30;99.90;;;-145.59;100.00;63944.34;5053644;28;19921;-72
2021/07/14 04:10:02;;;;;;;;;;;17.20;99.90;;;-145.59;100.00;63944.34;5019463;28;20012;-68
2021/07/14 04:12:28;;;;;;;;;;;17.20;99.90;;;-145.59;100.00;63944.34;5019988;28;20393;-69
2021/07/14 04:14:54;;;;;;;;;;;17.20;99.90;;;-145.59;100.00;63944.34;5035975;28;20383;-70
2021/07/14 04:17:19;;;;;;;;;;;17.10;99.90;;;-145.59;100.00;63944.34;5053878;28;19924;-69
2021/07/14 04:19:46;;;;;;;;;;;17.10;99.90;;;-145.59;100.00;63944.34;5019351;28;19921;-69
2021/07/14 04:22:12;;;;;;;;;;;17.10;99.90;;;-145.59;100.00;63944.34;5053651;28;20011;-69
2021/07/14 04:24:40;;;;;;;;;;;17.10;99.90;;;-145.59;100.00;63944.34;5003162;28;19920;-71
2021/07/14 04:27:08;;;;;;;;;;;17.10;99.90;;;-145.59;100.00;63944.34;5003346;28;20359;-69
2021/07/14 04:29:34;;;;;;;;;;;17.20;99.90;;;-145.59;100.00;63944.34;5019907;28;19982;-69
2021/07/14 04:32:00;;;;;;;;;;;17.20;99.90;;;-145.59;100.00;63944.34;5018749;28;19924;-72
2021/07/14 04:34:26;;;;;;;;;;;17.30;99.90;;;-145.59;100.00;63944.34;5036405;28;19924;-69
2021/07/14 04:36:52;;;;;;;;;;;17.30;99.90;;;-145.59;100.00;63944.34;5053656;28;19966;-70
2021/07/14 04:39:18;;;;;;;;;;;17.30;99.90;;;-145.59;100.00;63944.34;5036062;28;19921;-70
2021/07/14 04:41:47;;;;;;;;;;;17.30;99.90;;;-145.59;100.00;63944.34;5019289;28;19912;-69
2021/07/14 04:44:20;;;;;;;;;;;17.30;99.90;;;-145.59;100.00;63944.34;5002831;28;19925;-70
2021/07/14 04:46:46;;;;;;;;;;;17.30;99.90;;;-145.59;100.00;63944.34;5004954;28;19979;-70
2021/07/14 04:49:12;;;;;;;;;;;17.30;99.90;;;-145.59;100.00;63944.34;5018926;28;19921;-71
2021/07/14 04:51:37;;;;;;;;;;;17.40;99.90;;;-145.59;100.00;63944.34;5002592;28;19921;-70
2021/07/14 04:54:03;;;;;;;;;;;17.40;99.90;;;-145.59;100.00;63944.34;5019025;28;19921;-69
2021/07/14 04:56:29;;;;;;;;;;;17.50;99.90;;;-145.59;100.00;63944.34;5035811;28;19951;-71
2021/07/14 04:58:54;;;;;;;;;;;17.60;99.90;;;-145.59;100.00;63944.34;5035449;28;19921;-70
2021/07/14 05:01:20;;;;;;;;;;;17.50;99.90;;;-145.59;100.00;63944.34;5035820;28;19921;-72
2021/07/14 05:03:47;;;;;;;;;;;17.50;99.90;;;-145.59;100.00;63944.34;5053093;28;19921;-72
2021/07/14 05:06:14;;;;;;;;;;;17.50;99.90;;;-145.59;100.00;63944.34;5018637;28;19932;-71
2021/07/14 05:08:40;;;;;;;;;;;17.40;99.90;;;-145.59;100.00;63944.34;5019119;28;20302;-71
2021/07/14 05:11:06;;;;;;;;;;;17.40;99.90;;;-145.59;100.00;63944.34;5002535;28;20392;-71
2021/07/14 05:13:32;;;;;;;;;;;17.40;99.90;;;-145.59;100.00;63944.34;5035544;28;19985;-73
2021/07/14 05:15:58;;;;;;;;;;;17.50;99.90;;;-145.59;100.00;63944.34;5035414;28;20390;-68
2021/07/14 05:18:24;;;;;;;;;;;17.50;99.90;;;-145.59;100.00;63944.34;5035211;28;19927;-72
2021/07/14 05:20:50;;;;;;;;;;;17.50;99.90;;;-145.59;100.00;63944.34;5035497;28;19928;-69
2021/07/14 05:23:15;;;;;;;;;;;17.50;99.90;;;-145.59;100.00;63944.34;5018978;28;19920;-71
2021/07/14 05:25:42;;;;;;;;;;;17.60;99.90;;;-145.59;100.00;63944.34;5019193;28;20399;-72
2021/07/14 05:28:08;;;;;;;;;;;17.70;99.90;;;-145.59;100.00;63944.34;5035235;28;19983;-70
2021/07/14 05:30:33;;;;;;;;;;;17.70;99.90;;;-145.59;100.00;63944.34;5035665;28;19921;-72
2021/07/14 05:32:59;;;;;;;;;;;17.60;99.90;;;-145.59;100.00;63944.34;5035348;28;19924;-71
2021/07/14 05:35:25;;;;;;;;;;;17.60;99.90;;;-145.59;100.00;63944.34;5018875;28;19920;-73
2021/07/14 05:37:51;;;;;;;;;;;17.50;99.90;;;-145.59;100.00;63944.34;5035087;28;20421;-72
2021/07/14 05:40:17;;;;;;;;;;;17.60;99.90;;;-145.59;100.00;63944.34;5035221;28;19917;-71
2021/07/14 05:42:42;;;;;;;;;;;17.50;99.90;;;-145.59;100.00;63944.34;5018827;28;19963;-70
2021/07/14 05:45:08;;;;;;;;;;;17.50;99.90;;;-145.59;100.00;63944.34;5020952;28;20431;-69
2021/07/14 05:47:34;;;;;;;;;;;17.50;99.90;;;-145.59;100.00;63944.34;5039126;28;19991;-68
2021/07/14 05:50:00;;;;;;;;;;;17.50;99.90;;;-145.59;100.00;63944.34;5056717;28;19924;-68
2021/07/14 05:52:25;;;;;;;;;;;17.60;99.90;;;-145.59;100.00;63944.34;5006024;28;19928;-69
2021/07/14 05:54:51;;;;;;;;;;;17.60;99.90;;;-145.59;100.00;63944.34;5056524;28;19921;-67
2021/07/14 05:57:17;;;;;;;;;;;17.70;99.90;;;-145.59;100.00;63944.34;5038804;28;20287;-67
2021/07/14 05:59:42;;;;;;;;;;;17.70;99.90;;;-145.59;100.00;63944.34;5038901;28;19928;-69
2021/07/14 06:02:08;;;;;;;;;;;17.70;99.90;;;-145.59;100.00;63944.34;5039061;28;19927;-70
2021/07/14 06:04:34;;;;;;;;;;;17.80;99.90;;;-145.59;100.00;63944.34;5038807;28;19921;-69
2021/07/14 06:07:01;;;;;;;;;;;17.80;99.90;;;-145.59;100.00;63944.34;5056024;28;19929;-70
2021/07/14 06:09:26;;;;;;;;;;;17.80;99.90;;;-145.59;100.00;63944.34;5038602;28;19960;-72
2021/07/14 06:11:52;;;;;;;;;;;17.80;99.90;;;-145.59;100.00;63944.34;5038330;28;20352;-67
2021/07/14 06:14:18;;;;;;;;;;;17.90;99.90;;;-145.59;100.00;63944.34;5056322;28;19921;-69
2021/07/14 06:16:44;;;;;;;;;;;17.90;99.90;;;-145.59;100.00;63944.34;5056353;28;20294;-71
2021/07/14 06:19:09;;;;;;;;;;;17.80;99.90;;;-145.59;100.00;63944.34;5021840;28;19917;-67
2021/07/14 06:21:35;;;;;;;;;;;17.80;99.90;;;-145.59;100.00;63944.34;5056043;28;19927;-70
2021/07/14 06:24:01;;;;;;;;;;;17.80;99.90;;;-145.59;100.00;63944.34;5055977;28;20015;-70
2021/07/14 06:26:27;;;;;;;;;;;17.80;99.90;;;-145.59;100.00;63944.34;5038277;28;19925;-69
2021/07/14 06:28:52;;;;;;;;;;;17.80;99.90;;;-145.59;100.00;63944.34;5055978;28;19931;-68
2021/07/14 06:31:18;;;;;;;;;;;17.90;99.90;;;-145.59;100.00;63944.34;5038131;28;19921;-71
2021/07/14 06:33:44;;;;;;;;;;;17.90;99.90;;;-145.59;100.00;63944.34;5021545;28;19921;-70
2021/07/14 06:36:10;;;;;;;;;;;17.90;99.90;;;-145.59;100.00;63944.34;5038106;28;19920;-69
2021/07/14 06:38:36;;;;;;;;;;;17.90;99.90;;;-145.59;100.00;63944.34;5055748;28;19916;-67
2021/07/14 06:41:03;;;;;;;;;;;18.00;99.90;;;-145.59;100.00;63944.34;5021409;28;19927;-69
2021/07/14 06:43:49;;;;;;;;;;;18.00;99.90;;;-145.59;100.00;63944.34;5038418;28;19916;-72
2021/07/14 06:46:16;;;;;;;;;;;18.10;99.90;;;-145.59;100.00;63944.34;5040972;28;20295;-68
2021/07/14 06:48:42;;;;;;;;;;;18.20;99.90;;;-145.59;100.00;63944.34;5005329;28;20381;-70
2021/07/14 06:51:09;;;;;;;;;;;18.20;99.90;;;-145.59;100.00;63944.34;5021308;28;20100;-70
2021/07/14 06:53:34;;;;;;;;;;;18.20;99.90;;;-145.59;100.00;63944.34;5037385;28;19924;-70
2021/07/14 06:56:01;;;;;;;;;;;18.30;99.90;;;-145.59;100.00;63944.34;5036821;28;20298;-69
2021/07/14 06:58:27;;;;;;;;;;;18.40;99.90;;;-145.59;100.00;63944.34;5055198;28;19921;-69
2021/07/14 07:00:54;;;;;;;;;;;18.40;99.90;;;-145.59;100.00;63944.34;5021209;28;19917;-73
2021/07/14 07:03:20;;;;;;;;;;;18.40;99.90;;;-145.59;100.00;63944.34;5021009;28;19921;-73
2021/07/14 07:05:47;;;;;;;;;;;18.50;99.90;;;-145.59;100.00;63944.34;5037338;28;19960;-68
2021/07/14 07:08:13;;;;;;;;;;;18.60;99.90;;;-145.59;100.00;63944.34;5037383;28;19924;-68
2021/07/14 07:10:42;;;;;;;;;;;18.70;99.90;;;-145.59;100.00;63944.34;5020814;28;19927;-69
2021/07/14 07:13:10;;;;;;;;;;;18.70;99.90;;;-145.59;100.00;63944.34;5021136;28;20007;-69
2021/07/14 07:15:36;;;;;;;;;;;18.70;99.90;;;-145.59;100.00;63944.34;5037242;28;20329;-69
2021/07/14 07:18:01;;;;;;;;;;;18.70;99.90;;;-145.59;100.00;63944.34;5037330;28;19921;-67
2021/07/14 07:20:29;;;;;;;;;;;18.70;99.90;;;-145.59;100.00;63944.34;5004326;28;19921;-68
2021/07/14 07:22:55;;;;;;;;;;;18.70;99.90;;;-145.59;100.00;63944.34;5037167;28;20390;-69
2021/07/14 07:25:20;;;;;;;;;;;18.70;99.90;;;-145.59;100.00;63944.34;5037018;28;19960;-70
2021/07/14 07:27:46;;;;;;;;;;;18.70;99.90;;;-145.59;100.00;63944.34;5020369;28;20019;-69
2021/07/14 07:30:12;;;;;;;;;;;18.70;99.90;;;-145.59;100.00;63944.34;5054639;28;19925;-68
2021/07/14 07:32:38;;;;;;;;;;;18.70;99.90;;;-145.59;100.00;63944.34;5037238;28;20366;-69
2021/07/14 07:35:06;;;;;;;;;;;18.60;99.90;;;-145.59;100.00;63944.34;5003795;28;19920;-71
2021/07/14 07:37:32;;;;;;;;;;;18.70;99.90;;;-145.59;100.00;63944.34;5020231;28;19970;-72
2021/07/14 07:39:58;;;;;;;;;;;18.70;99.90;;;-145.59;100.00;63944.34;5054799;28;19971;-69
2021/07/14 07:42:24;;;;;;;;;;;18.60;99.90;;;-145.59;100.00;63944.34;5036809;28;19927;-73
2021/07/14 07:44:51;;;;;;;;;;;18.70;99.90;;;-145.59;100.00;63944.34;5054679;28;20384;-71
2021/07/14 07:47:17;;;;;;;;;;;18.70;99.90;;;-145.59;100.00;63944.34;5020113;28;19917;-71
2021/07/14 07:49:45;;;;;;;;;;;18.80;99.90;;;-145.59;100.00;63944.34;5036479;28;20375;-68
2021/07/14 07:52:15;;;;;;;;;;;18.80;99.90;;;-145.59;100.00;63944.34;5054038;28;20288;-72
2021/07/14 07:54:41;;;;;;;;;;;18.90;99.90;;;-145.59;100.00;63944.34;5020063;28;20298;-71
2021/07/14 07:57:08;;;;;;;;;;;19.00;99.90;;;-145.59;100.00;63944.34;5019855;28;20261;-71
2021/07/14 07:59:35;;;;;;;;;;;18.90;99.90;;;-145.59;100.00;63944.34;5003668;28;20370;-70
2021/07/14 08:02:04;;;;;;;;;;;18.80;99.90;;;-145.59;100.00;63944.34;5036380;28;20020;-70
2021/07/14 08:04:31;;;;;;;;;;;18.80;99.90;;;-145.59;100.00;63944.34;5036453;28;19921;-70
2021/07/14 08:06:57;;;;;;;;;;;18.80;99.90;;;-145.59;100.00;63944.34;5035631;28;20003;-70
2021/07/14 08:09:23;;;;;;;;;;;18.90;99.90;;;-145.59;100.00;63944.34;5019548;28;20363;-70
2021/07/14 08:11:49;;;;;;;;;;;18.80;99.90;;;-145.59;100.00;63944.34;5053962;28;19928;-71
2021/07/14 08:14:16;;;;;;;;;;;18.70;99.90;;;-145.59;100.00;63944.34;5036317;28;20016;-70
2021/07/14 08:16:43;;;;;;;;;;;18.60;99.90;;;-145.59;100.00;63944.34;5036206;28;19920;-75
2021/07/14 08:19:09;;;;;;;;;;;18.60;99.90;;;-145.59;100.00;63944.34;5036310;28;20003;-69
2021/07/14 08:21:35;;;;;;;;;;;18.50;99.90;;;-145.59;100.00;63944.34;5019506;28;19917;-69
2021/07/14 08:24:01;;;;;;;;;;;18.40;99.90;;;-145.59;100.00;63944.34;5053703;28;19921;-69
2021/07/14 08:26:27;;;;;;;;;;;18.40;99.90;;;-145.59;100.00;63944.34;5035980;28;19940;-68
2021/07/14 08:28:52;;;;;;;;;;;18.30;99.90;;;-145.59;100.00;63944.34;5053814;28;19931;-68
2021/07/14 08:31:19;;;;;;;;;;;18.30;99.90;;;-145.59;100.00;63944.34;5019536;28;20394;-69
2021/07/14 08:33:44;;;;;;;;;;;18.30;99.90;;;-145.59;100.00;63944.34;5035880;28;20054;-70
2021/07/14 08:36:10;;;;;;;;;;;18.40;99.90;;;-145.59;100.00;63944.34;5035956;28;19921;-70
2021/07/14 08:38:36;;;;;;;;;;;18.40;99.90;;;-145.59;100.00;63944.34;5019226;28;20310;-69
2021/07/14 08:41:03;;;;;;;;;;;18.50;99.90;;;-145.59;100.00;63944.34;5019134;28;19971;-70
2021/07/14 08:43:32;;;;;;;;;;;18.60;99.90;;;-145.59;100.00;63944.34;5019259;28;20322;-69
2021/07/14 08:45:58;;;;;;;;;;;18.70;99.90;;;-145.59;100.00;63944.34;5035574;28;20011;-70
2021/07/14 08:48:25;;;;;;;;;;;18.70;99.90;;;-145.59;100.00;63944.34;5053304;28;20393;-68
2021/07/14 08:50:59;;;;;;;;;;;18.80;99.90;;;-145.59;100.00;63944.34;5035530;28;19976;-71
2021/07/14 08:53:26;;;;;;;;;;;18.80;99.90;;;-145.59;100.00;63944.34;5019901;28;20401;-71
2021/07/14 08:55:51;;;;;;;;;;;18.90;99.90;;;-145.59;100.00;63944.34;5019059;28;20432;-71
2021/07/14 08:58:19;;;;;;;;;;;18.90;99.90;;;-145.59;100.00;63944.34;5019109;28;19925;-71
2021/07/14 09:00:47;;;;;;;;;;;18.90;99.90;;;-145.59;100.00;63944.34;5036090;28;19956;-69
2021/07/14 09:03:13;;;;;;;;;;;19.00;99.90;;;-145.59;100.00;63944.34;5019064;28;19924;-68
2021/07/14 09:05:39;;;;;;;;;;;19.00;99.90;;;-145.59;100.00;63944.34;5036097;28;19928;-67
2021/07/14 09:08:05;;;;;;;;;;;19.30;99.90;;;-145.59;100.00;63944.34;5018521;28;19925;-71
2021/07/14 09:10:31;;;;;;;;;;;19.40;99.90;;;-145.59;100.00;63944.34;5019076;28;19957;-71
2021/07/14 09:12:58;;;;;;;;;;;19.50;99.90;;;-145.59;100.00;63944.34;5018899;28;19917;-69
2021/07/14 09:15:27;;;;;;;;;;;19.50;99.90;;;-145.59;100.00;63944.34;5035700;28;19917;-71
2021/07/14 09:17:56;;;;;;;;;;;19.60;99.90;;;-145.59;100.00;63944.34;5020281;28;19931;-73
2021/07/14 09:20:23;;;;;;;;;;;19.60;99.90;;;-145.59;100.00;63944.34;5023105;28;19913;-74
2021/07/14 09:23:04;;;;;;;;;;;19.60;99.90;;;-145.59;100.00;63944.34;5057293;28;20411;-69
2021/07/14 09:25:36;;;;;;;;;;;19.80;99.90;;;-145.59;100.00;63944.34;5023309;28;19985;-73
2021/07/14 09:28:05;;;;;;;;;;;20.10;99.90;;;-145.59;100.00;63944.34;5023376;28;20298;-71
2021/07/14 09:30:33;;;;;;;;;;;20.40;99.90;;;-145.59;100.00;63944.34;5007335;28;20062;-72
2021/07/14 09:33:02;;;;;;;;;;;20.90;99.90;;;-145.59;100.00;63944.34;5006723;28;19962;-74
2021/07/14 09:35:41;;;;;;;;;;;21.70;99.90;;;-145.59;100.00;63944.34;5039499;28;19916;-71
2021/07/14 09:38:10;;;;;;;;;;;22.10;99.90;;;-145.59;100.00;63944.34;5038886;28;19916;-70
2021/07/14 09:40:41;;;;;;;;;;;22.30;99.90;;;-145.59;100.00;63944.34;5022927;28;19916;-70
2021/07/14 09:43:09;;;;;;;;;;;22.60;99.90;;;-145.59;100.00;63944.34;5022697;28;19916;-71
2021/07/14 09:45:59;;;;;;;;;;;22.90;99.90;;;-145.59;100.00;63944.34;5022714;28;19924;-76
2021/07/14 09:48:29;;;;;;;;;;;23.30;99.90;;;-145.59;100.00;63944.34;5025757;28;19923;-73
2021/07/14 09:51:06;;;;;;;;;;;23.30;99.90;;;-145.59;100.00;63944.34;5038775;28;19978;-71
2021/07/14 09:53:34;;;;;;;;;;;23.20;99.90;;;-145.59;100.00;63944.34;5023111;28;20298;-77
2021/07/14 09:56:10;;;;;;;;;;;22.90;99.90;;;-145.59;100.00;63944.34;5056825;28;19939;-72
2021/07/14 09:58:36;;;;;;;;;;;22.70;99.90;;;-145.59;100.00;63944.34;5040669;28;19917;-74
2021/07/14 10:01:04;;;;;;;;;;;22.50;99.90;;;-145.59;100.00;63944.34;5022766;28;20348;-71
2021/07/14 10:03:34;;;;;;;;;;;22.40;99.90;;;-145.59;100.00;63944.34;5022090;28;19923;-70
2021/07/14 10:06:10;;;;;;;;;;;22.30;99.90;;;-145.59;100.00;63944.34;5038775;28;19989;-74
2021/07/14 10:08:50;;;;;;;;;;;22.30;99.90;;;-145.59;100.00;63944.34;5038073;28;19925;-72
2021/07/14 10:11:27;;;;;;;;;;;22.10;99.90;;;-145.59;100.00;63944.34;5040288;28;19966;-71
2021/07/14 10:13:54;;;;;;;;;;;21.80;99.90;;;-145.59;100.00;63944.34;5022189;28;19961;-68
2021/07/14 10:16:20;;;;;;;;;;;21.60;99.90;;;-145.59;100.00;63944.34;5056027;28;19917;-68
2021/07/14 10:19:17;;;;;;;;;;;21.40;99.90;;;-145.59;100.00;63944.34;5021961;28;19925;-72
2021/07/14 10:21:47;;;;;;;;;;;21.40;99.90;;;-145.59;100.00;63944.34;5024344;28;19924;-70
2021/07/14 10:24:16;;;;;;;;;;;21.40;99.90;;;-145.59;100.00;63944.34;5056127;28;19932;-68
2021/07/14 10:26:44;;;;;;;;;;;21.50;99.90;;;-145.59;100.00;63944.34;5056098;28;19966;-71
2021/07/14 10:29:10;;;;;;;;;;;21.70;99.90;;;-145.59;100.00;63944.34;5021359;28;19921;-69
2021/07/14 10:31:37;;;;;;;;;;;21.80;99.90;;;-145.59;100.00;63944.34;5037695;28;19916;-68
2021/07/14 10:34:04;;;;;;;;;;;21.90;99.90;;;-145.59;100.00;63944.34;5055885;28;20095;-70
2021/07/14 10:36:32;;;;;;;;;;;22.00;99.90;;;-145.59;100.00;63944.34;5021507;28;20035;-69
2021/07/14 10:39:14;;;;;;;;;;;21.90;99.90;;;-145.59;100.00;63944.34;5037711;28;19952;-67
2021/07/14 10:41:41;;;;;;;;;;;21.90;99.90;;;-145.59;100.00;63944.34;5037881;28;19917;-68
2021/07/14 10:44:07;;;;;;;;;;;21.60;99.90;;;-145.59;100.00;63944.34;5038712;28;19932;-74
2021/07/14 10:46:36;;;;;;;;;;;21.60;99.90;;;-145.59;100.00;63944.34;5005008;28;20053;-72
2021/07/14 10:49:08;;;;;;;;;;;21.60;99.90;;;-145.59;100.00;63944.34;5037827;28;19927;-74
2021/07/14 10:51:35;;;;;;;;;;;21.50;99.90;;;-145.59;100.00;63944.34;5055403;28;20355;-73
2021/07/14 10:54:06;;;;;;;;;;;21.60;99.90;;;-145.59;100.00;63944.34;5038103;28;20217;-75
2021/07/14 10:56:40;;;;;;;;;;;21.70;99.90;;;-145.59;100.00;63944.34;5037489;28;20007;-74
2021/07/14 10:59:06;;;;;;;;;;;21.80;99.90;;;-145.59;100.00;63944.34;5021777;28;20263;-74
2021/07/14 11:01:46;;;;;;;;;;;21.80;99.90;;;-145.59;100.00;63944.34;5037753;28;19921;-73